Time;durP1;ratioP1;P1;durP2;ratioP2;P2;SDS_P1;SDS_P2;PMS_P1;PMS_P2;Temp;Humidity;BMP_temperature;BMP_pressure;BME280_temperature;BME280_humidity;BME280_pressure;Samples;Min_cycle;Max_cycle;Signal;HPM_P1;HPM_P2
2022/12/27 00:00:42;;;;;;;34.93;26.50;;;;;;;4.26;64.75;95670.38;5018319;28;20186;-67
2022/12/27 00:03:08;;;;;;;37.80;28.77;;;;;;;4.17;65.62;95662.22;5000626;28;20371;-66
2022/12/27 00:05:33;;;;;;;36.93;28.67;;;;;;;4.12;65.38;95663.44;5020329;28;20369;-66
2022/12/27 00:07:58;;;;;;;39.07;30.27;;;;;;;4.20;64.62;95675.03;5012846;28;20294;-67
2022/12/27 00:10:24;;;;;;;34.67;29.40;;;;;;;4.08;65.22;95678.38;5012664;28;20538;-66
2022/12/27 00:12:49;;;;;;;43.30;30.93;;;;;;;3.84;65.82;95675.53;5021905;28;20228;-66
2022/12/27 00:15:15;;;;;;;39.60;30.57;;;;;;;3.92;65.69;95672.47;5014740;28;20219;-66
2022/12/27 00:17:40;;;;;;;45.17;31.93;;;;;;;3.73;65.59;95675.38;5025538;28;20264;-66
2022/12/27 00:20:06;;;;;;;42.23;32.13;;;;;;;3.83;65.52;95666.06;5020710;28;20230;-67
2022/12/27 00:22:31;;;;;;;38.77;31.73;;;;;;;3.91;65.02;95669.03;5011703;28;20227;-66
2022/12/27 00:24:57;;;;;;;39.90;31.10;;;;;;;3.89;64.86;95659.66;5011161;28;20183;-66
2022/12/27 00:27:22;;;;;;;36.47;31.23;;;;;;;3.97;64.99;95666.03;5013471;28;20183;-66
2022/12/27 00:29:48;;;;;;;42.00;32.73;;;;;;;3.95;65.09;95660.09;5020842;28;20222;-66
2022/12/27 00:32:13;;;;;;;41.43;32.07;;;;;;;3.94;64.89;95660.19;5024876;28;20232;-66
2022/12/27 00:34:39;;;;;;;44.47;32.87;;;;;;;3.75;64.98;95666.53;5018563;28;20325;-67
2022/12/27 00:37:04;;;;;;;38.10;31.70;;;;;;;3.69;65.17;95666.09;5016014;28;20205;-66
2022/12/27 00:39:29;;;;;;;41.53;32.53;;;;;;;3.71;65.40;95669.41;5013946;28;20342;-67
2022/12/27 00:41:55;;;;;;;42.17;33.07;;;;;;;3.76;65.58;95672.56;5016042;28;20227;-66
2022/12/27 00:44:20;;;;;;;40.23;31.83;;;;;;;3.82;65.10;95677.38;5016404;28;20225;-67
2022/12/27 00:46:45;;;;;;;40.90;32.67;;;;;;;3.84;65.35;95691.16;5011382;28;20245;-67
2022/12/27 00:49:11;;;;;;;40.80;31.80;;;;;;;3.80;65.08;95689.69;5010468;28;20179;-67
2022/12/27 00:51:36;;;;;;;43.13;32.70;;;;;;;3.69;65.29;95684.31;5017051;28;20221;-67
2022/12/27 00:54:02;;;;;;;37.00;31.80;;;;;;;3.73;65.55;95696.19;5013749;28;20222;-67
2022/12/27 00:56:29;;;;;;;38.73;32.47;;;;;;;3.79;65.13;95698.41;4998144;28;20215;-67
2022/12/27 00:58:57;;;;;;;42.03;32.53;;;;;;;3.76;65.27;95706.38;5002173;28;20227;-67
2022/12/27 01:01:24;;;;;;;40.50;31.20;;;;;;;3.78;65.15;95696.72;4993596;28;20222;-67
2022/12/27 01:03:49;;;;;;;40.40;31.17;;;;;;;3.82;65.05;95700.81;5015480;28;20193;-67
2022/12/27 01:06:23;;;;;;;36.03;30.63;;;;;;;3.74;65.83;95690.03;5011666;28;20298;-67
2022/12/27 01:08:48;;;;;;;40.23;29.80;;;;;;;3.78;65.62;95698.50;4998268;28;20306;-67
2022/12/27 01:11:15;;;;;;;40.03;31.83;;;;;;;3.82;65.18;95693.00;5015398;28;20306;-67
2022/12/27 01:13:41;;;;;;;37.27;30.17;;;;;;;3.76;65.59;95688.19;5010680;28;20258;-67
2022/12/27 01:16:11;;;;;;;40.17;32.73;;;;;;;3.69;65.76;95692.09;5008185;28;20183;-67
2022/12/27 01:18:37;;;;;;;40.47;31.57;;;;;;;3.67;66.05;95693.97;5018330;28;20211;-67
2022/12/27 01:21:10;;;;;;;38.73;30.80;;;;;;;3.59;65.84;95691.00;5015461;28;20320;-67
2022/12/27 01:23:37;;;;;;;41.67;33.27;;;;;;;3.60;66.29;95685.69;5009992;28;20214;-67
2022/12/27 01:26:05;;;;;;;39.17;31.17;;;;;;;3.67;65.98;95688.75;5009402;28;20306;-67
2022/12/27 01:28:31;;;;;;;39.30;31.03;;;;;;;3.69;65.89;95679.94;5015330;28;20222;-67
2022/12/27 01:30:56;;;;;;;39.03;31.10;;;;;;;3.75;65.61;95681.31;5011922;28;20198;-67
2022/12/27 01:33:22;;;;;;;44.17;33.97;;;;;;;3.76;65.98;95667.38;5011344;28;20299;-66
2022/12/27 01:35:47;;;;;;;39.77;31.67;;;;;;;3.73;65.92;95667.56;5008755;28;20298;-66
2022/12/27 01:38:13;;;;;;;40.77;31.63;;;;;;;3.79;65.69;95669.78;4998854;28;20226;-67
2022/12/27 01:40:39;;;;;;;39.73;34.10;;;;;;;3.72;65.37;95668.50;5012872;28;20237;-66
2022/12/27 01:43:04;;;;;;;41.73;34.57;;;;;;;3.71;65.86;95675.44;5011295;28;20237;-66
2022/12/27 01:45:35;;;;;;;42.87;33.07;;;;;;;3.75;65.89;95682.16;5012829;28;20180;-67
2022/12/27 01:48:21;;;;;;;41.30;32.77;;;;;;;3.69;65.86;95677.34;4991956;28;20219;-67
2022/12/27 01:51:04;;;;;;;46.47;33.70;;;;;;;3.64;66.35;95670.75;5010563;28;20219;-67
2022/12/27 01:53:38;;;;;;;42.50;32.70;;;;;;;3.67;66.46;95667.94;5019861;28;20228;-67
2022/12/27 01:56:26;;;;;;;34.13;30.17;;;;;;;3.50;66.24;95667.22;5000760;28;20222;-67
2022/12/27 01:58:59;;;;;;;37.10;29.57;;;;;;;3.57;66.47;95666.84;5019622;28;20240;-67
2022/12/27 02:01:37;;;;;;;34.57;27.57;;;;;;;3.58;66.11;95673.69;5018991;28;20280;-66
2022/12/27 02:04:07;;;;;;;37.13;28.73;;;;;;;3.61;65.79;95663.97;5018042;28;20194;-66
2022/12/27 02:06:35;;;;;;;37.80;29.23;;;;;;;3.58;65.80;95673.69;5028045;28;20206;-67
2022/12/27 02:09:46;;;;;;;33.67;28.70;;;;;;;3.45;66.45;95668.44;5013536;28;20245;-67
2022/12/27 02:12:12;;;;;;;32.33;26.77;;;;;;;3.49;66.19;95654.28;5003953;28;20222;-66
2022/12/27 02:14:40;;;;;;;31.97;25.27;;;;;;;3.52;66.34;95654.09;5012914;28;20222;-66
2022/12/27 02:17:10;;;;;;;36.67;28.87;;;;;;;3.41;66.49;95657.34;5011696;28;20276;-66
2022/12/27 02:19:41;;;;;;;30.83;26.20;;;;;;;3.42;66.50;95664.25;5006850;28;20222;-66
2022/12/27 02:25:50;;;;;;;33.70;26.57;;;;;;;3.48;66.45;95666.47;4998738;28;20282;-66
2022/12/27 02:28:15;;;;;;;34.53;26.93;;;;;;;3.47;66.51;95671.75;4984562;28;20223;-66
2022/12/27 02:30:45;;;;;;;35.47;27.33;;;;;;;3.27;67.19;95662.56;4975613;28;20192;-66
2022/12/27 02:33:17;;;;;;;32.87;26.77;;;;;;;3.41;66.43;95666.94;4972696;28;20246;-66
2022/12/27 02:35:52;;;;;;;33.27;25.93;;;;;;;3.29;66.47;95660.72;5002139;28;20230;-66
2022/12/27 02:38:26;;;;;;;32.50;26.03;;;;;;;3.35;66.44;95668.13;4982115;28;20317;-65
2022/12/27 02:55:41;;;;;;;30.43;23.87;;;;;;;3.12;66.96;95663.47;4995074;28;20264;-65
2022/12/27 02:58:40;;;;;;;35.27;23.60;;;;;;;3.13;66.80;95658.19;4980547;28;20278;-66
2022/12/27 03:04:47;;;;;;;29.23;24.27;;;;;;;3.23;66.85;95666.25;5013534;28;20305;-66
2022/12/27 03:07:41;;;;;;;28.97;24.20;;;;;;;3.25;66.63;95672.19;5017600;28;20220;-65
2022/12/27 03:16:10;;;;;;;31.63;24.97;;;;;;;3.22;66.75;95672.38;4973145;28;20223;-66
2022/12/27 03:19:10;;;;;;;31.30;25.10;;;;;;;3.11;67.00;95675.63;4955017;28;20205;-66
2022/12/27 03:33:11;;;;;;;30.70;24.83;;;;;;;3.16;67.02;95668.38;4907979;29;20310;-66
2022/12/27 03:33:22;;;;;;;30.73;24.23;;;;;;;3.23;66.85;95674.03;4897446;29;20321;-66
2022/12/27 03:38:57;;;;;;;31.57;23.27;;;;;;;3.27;66.80;95672.94;4894466;29;20257;-66
2022/12/27 03:44:38;;;;;;;34.00;24.20;;;;;;;3.06;67.48;95673.28;4842576;29;20243;-65
2022/12/27 03:47:18;;;;;;;30.63;24.60;;;;;;;3.05;67.46;95669.03;4857269;29;20346;-66
2022/12/27 03:49:51;;;;;;;28.50;23.07;;;;;;;3.07;66.97;95669.78;4868429;29;20235;-66
2022/12/27 03:52:22;;;;;;;27.07;23.30;;;;;;;3.12;67.13;95676.44;4867898;29;20236;-66
2022/12/27 03:54:50;;;;;;;27.83;22.93;;;;;;;3.04;67.04;95671.69;4865655;29;20211;-66
2022/12/27 03:57:18;;;;;;;34.80;24.07;;;;;;;3.05;67.15;95674.22;4895292;29;20233;-66
2022/12/27 03:59:44;;;;;;;29.97;23.80;;;;;;;3.16;67.14;95667.56;4897448;29;20234;-65
2022/12/27 04:02:36;;;;;;;30.80;22.07;;;;;;;3.18;66.69;95676.09;4901546;29;20237;-66
2022/12/27 04:05:01;;;;;;;30.27;22.53;;;;;;;3.11;66.38;95665.22;4898273;28;20225;-66
2022/12/27 04:07:27;;;;;;;28.27;23.40;;;;;;;3.09;66.74;95672.28;4939092;28;20231;-66
2022/12/27 04:34:43;;;;;;;27.90;21.73;;;;;;;2.81;67.02;95688.63;5001724;28;20229;-65
2022/12/27 04:37:17;;;;;;;27.80;22.53;;;;;;;2.77;67.08;95692.31;5012607;28;20187;-65
2022/12/27 04:56:06;;;;;;;28.03;22.47;;;;;;;2.75;67.49;95725.31;5009930;28;20224;-65
2022/12/27 04:58:32;;;;;;;28.77;23.73;;;;;;;2.79;66.95;95721.66;5017441;28;20228;-65
2022/12/27 05:03:48;;;;;;;28.43;24.23;;;;;;;2.74;67.57;95734.06;5006002;28;20194;-66
2022/12/27 05:06:14;;;;;;;30.63;24.10;;;;;;;2.78;67.32;95722.56;5021524;28;20223;-66
2022/12/27 05:14:13;;;;;;;27.07;22.57;;;;;;;2.87;67.36;95702.09;5009457;28;20253;-66
2022/12/27 05:16:40;;;;;;;29.97;24.27;;;;;;;2.93;67.16;95703.50;5010783;28;20285;-66
2022/12/27 05:19:08;;;;;;;27.27;22.50;;;;;;;2.98;66.99;95696.28;5008854;28;20258;-65
2022/12/27 05:27:09;;;;;;;26.90;21.60;;;;;;;2.99;66.72;95697.94;5010331;28;20222;-65
2022/12/27 05:29:35;;;;;;;27.00;21.87;;;;;;;2.97;67.08;95698.97;5014102;28;20286;-66
2022/12/27 05:32:00;;;;;;;30.30;21.67;;;;;;;2.95;66.82;95680.88;5014472;28;20229;-66
2022/12/27 05:34:26;;;;;;;27.23;20.87;;;;;;;2.99;66.88;95673.72;5015408;28;20236;-66
2022/12/27 05:36:51;;;;;;;27.53;20.00;;;;;;;2.96;67.10;95661.75;5012027;28;20182;-66
2022/12/27 05:39:16;;;;;;;28.67;21.53;;;;;;;2.99;67.23;95661.56;5013662;28;20263;-65
2022/12/27 05:41:56;;;;;;;26.97;20.93;;;;;;;3.02;66.79;95665.75;5052709;27;20619;-66
2022/12/27 05:44:21;;;;;;;28.23;21.57;;;;;;;2.96;67.44;95661.75;5035787;28;20234;-66
2022/12/27 05:46:47;;;;;;;23.63;20.40;;;;;;;2.77;68.50;95671.53;5020640;28;20219;-66
2022/12/27 05:49:12;;;;;;;24.03;19.97;;;;;;;2.85;68.35;95674.53;5014918;28;20191;-66
2022/12/27 05:51:37;;;;;;;28.40;21.33;;;;;;;2.81;68.13;95684.28;5016592;28;20186;-67
2022/12/27 05:54:03;;;;;;;26.27;21.90;;;;;;;2.83;68.01;95689.38;5020542;28;20300;-67
2022/12/27 05:56:28;;;;;;;27.13;21.57;;;;;;;2.91;67.71;95697.56;4981072;28;20221;-67
2022/12/27 05:58:54;;;;;;;26.37;22.50;;;;;;;2.94;67.60;95693.94;5033301;28;20223;-68
2022/12/27 06:01:19;;;;;;;30.63;25.40;;;;;;;2.92;67.73;95695.81;5032356;28;20283;-65
2022/12/27 06:03:45;;;;;;;40.07;32.10;;;;;;;2.99;67.68;95695.34;5039745;28;20194;-66
2022/12/27 06:06:11;;;;;;;40.53;33.03;;;;;;;2.93;67.59;95708.69;5028730;28;20222;-66
2022/12/27 06:08:38;;;;;;;45.30;37.47;;;;;;;2.95;67.37;95708.63;5036471;28;20226;-67
2022/12/27 06:11:15;;;;;;;55.60;44.40;;;;;;;2.94;67.21;95715.59;5036341;28;20223;-66
2022/12/27 06:13:42;;;;;;;51.07;44.13;;;;;;;2.59;68.96;95725.34;5042083;28;20368;-65
2022/12/27 06:16:11;;;;;;;62.83;50.57;;;;;;;2.24;70.08;95722.13;5028954;28;20217;-65
2022/12/27 06:18:38;;;;;;;55.90;46.17;;;;;;;2.23;70.70;95728.25;5026503;28;20179;-65
2022/12/27 06:21:07;;;;;;;48.57;40.93;;;;;;;2.31;70.29;95732.09;5037433;28;20215;-65
2022/12/27 06:23:34;;;;;;;50.73;38.17;;;;;;;2.61;69.34;95723.50;5028912;28;20376;-65
2022/12/27 06:26:07;;;;;;;46.17;38.57;;;;;;;2.70;68.80;95727.34;5033831;28;20332;-65
2022/12/27 06:28:33;;;;;;;51.63;41.53;;;;;;;2.76;69.36;95727.03;4998723;28;20218;-66
2022/12/27 06:31:00;;;;;;;53.17;44.20;;;;;;;2.83;68.68;95715.34;5030385;28;20248;-65
2022/12/27 06:33:26;;;;;;;59.10;44.80;;;;;;;2.90;68.14;95721.88;5020125;28;20183;-65
2022/12/27 06:35:51;;;;;;;61.00;49.10;;;;;;;2.88;68.46;95723.72;5030981;28;20228;-66
2022/12/27 06:38:16;;;;;;;62.03;50.50;;;;;;;2.86;68.26;95721.22;5029807;28;20218;-65
2022/12/27 06:40:42;;;;;;;68.80;54.03;;;;;;;2.92;67.97;95722.63;5023014;28;20299;-66
2022/12/27 06:43:07;;;;;;;68.90;57.87;;;;;;;2.95;67.93;95727.63;5034289;28;20190;-65
2022/12/27 06:45:33;;;;;;;78.63;58.83;;;;;;;2.98;68.01;95727.44;5029381;28;20262;-66
2022/12/27 06:47:58;;;;;;;76.87;59.00;;;;;;;3.08;67.68;95732.97;5030774;28;20230;-65
2022/12/27 06:50:23;;;;;;;69.53;58.27;;;;;;;3.13;67.42;95728.34;5025686;28;20219;-66
2022/12/27 06:52:49;;;;;;;70.53;58.40;;;;;;;3.23;67.03;95731.22;5027701;28;20223;-65
2022/12/27 06:55:14;;;;;;;60.40;49.07;;;;;;;3.25;67.59;95719.81;5026612;28;20192;-66
2022/12/27 06:57:40;;;;;;;55.57;44.87;;;;;;;3.27;67.52;95711.94;5019508;28;20196;-65
2022/12/27 07:00:06;;;;;;;53.73;45.33;;;;;;;3.34;67.20;95718.44;5032418;28;20237;-65
2022/12/27 07:02:31;;;;;;;48.63;40.07;;;;;;;3.43;67.35;95717.06;5019226;28;20221;-66
2022/12/27 07:04:57;;;;;;;56.80;44.17;;;;;;;3.52;66.88;95717.34;5019454;28;20210;-66
2022/12/27 07:07:22;;;;;;;51.50;42.93;;;;;;;3.52;67.00;95725.13;5010682;28;20219;-65
2022/12/27 07:09:48;;;;;;;54.97;44.27;;;;;;;3.34;67.73;95713.22;5008585;28;20218;-65
2022/12/27 07:12:13;;;;;;;51.07;42.17;;;;;;;3.57;67.71;95711.03;5017309;28;20226;-66
2022/12/27 07:14:38;;;;;;;53.50;42.00;;;;;;;3.67;67.32;95706.97;5013887;28;20195;-65
2022/12/27 07:17:04;;;;;;;46.90;38.13;;;;;;;3.74;67.10;95706.50;5021289;28;20213;-65
2022/12/27 07:19:29;;;;;;;46.43;37.43;;;;;;;3.85;66.68;95705.84;5013580;28;20226;-65
2022/12/27 07:21:55;;;;;;;48.63;37.40;;;;;;;3.94;66.67;95710.47;5014222;28;20236;-66
2022/12/27 07:24:20;;;;;;;44.03;36.97;;;;;;;4.02;66.36;95698.75;5002700;28;20230;-65
2022/12/27 07:26:45;;;;;;;48.77;39.90;;;;;;;4.00;66.44;95711.03;5022994;28;20238;-65
2022/12/27 07:29:11;;;;;;;48.13;38.70;;;;;;;3.96;66.21;95706.00;5013827;28;20187;-65
2022/12/27 07:31:36;;;;;;;47.23;38.23;;;;;;;4.07;66.12;95712.31;4988224;28;20226;-65
2022/12/27 07:34:03;;;;;;;46.97;39.73;;;;;;;3.95;66.15;95706.09;5018103;28;20222;-65
2022/12/27 07:36:33;;;;;;;54.03;43.03;;;;;;;3.85;66.88;95718.84;5007711;28;20216;-65
2022/12/27 07:38:58;;;;;;;51.67;42.87;;;;;;;3.92;66.66;95708.91;5012312;28;20228;-65
2022/12/27 07:41:24;;;;;;;54.03;45.33;;;;;;;3.93;66.52;95706.22;5006906;28;20240;-65
2022/12/27 07:43:50;;;;;;;57.43;45.30;;;;;;;3.85;66.82;95703.25;5010885;28;20206;-65
2022/12/27 07:46:21;;;;;;;55.33;44.37;;;;;;;3.96;66.80;95708.63;5015091;28;20230;-65
2022/12/27 07:48:47;;;;;;;57.57;42.83;;;;;;;4.00;66.53;95703.22;5026521;28;20233;-65
2022/12/27 07:51:14;;;;;;;51.53;42.77;;;;;;;3.90;66.58;95698.59;5000311;28;20215;-65
2022/12/27 07:53:39;;;;;;;52.60;42.70;;;;;;;4.06;66.21;95705.44;5018355;28;20187;-65
2022/12/27 07:56:18;;;;;;;56.93;43.17;;;;;;;4.17;66.15;95709.06;5021220;28;20183;-65
2022/12/27 07:58:45;;;;;;;53.87;41.57;;;;;;;4.32;65.80;95717.66;5021193;28;20218;-65
2022/12/27 08:01:12;;;;;;;50.33;39.90;;;;;;;4.39;65.28;95705.09;5015671;28;20231;-65
2022/12/27 08:03:38;;;;;;;47.50;37.43;;;;;;;4.51;65.00;95706.91;5022098;28;20241;-66
2022/12/27 08:06:04;;;;;;;43.07;31.63;;;;;;;4.61;64.72;95723.63;5007691;28;20243;-65
2022/12/27 08:08:41;;;;;;;46.30;31.83;;;;;;;4.69;64.70;95711.88;5012073;28;20206;-65
2022/12/27 08:11:07;;;;;;;44.17;32.73;;;;;;;4.76;64.64;95721.81;5018452;28;20206;-65
2022/12/27 08:13:33;;;;;;;39.77;30.90;;;;;;;4.86;64.60;95720.28;5015051;28;20245;-65
2022/12/27 08:15:58;;;;;;;48.47;32.03;;;;;;;4.92;64.20;95720.81;5016220;28;20289;-66
2022/12/27 08:18:24;;;;;;;42.47;30.43;;;;;;;4.98;64.23;95723.03;5019226;28;20301;-65
2022/12/27 08:20:50;;;;;;;41.43;30.50;;;;;;;5.09;64.37;95723.16;5018278;28;20234;-65
2022/12/27 08:23:15;;;;;;;32.73;25.20;;;;;;;5.15;64.34;95719.31;5013721;28;20233;-65
2022/12/27 08:25:41;;;;;;;31.27;26.07;;;;;;;5.18;64.74;95719.09;5019018;28;20265;-65
2022/12/27 08:28:09;;;;;;;36.40;26.83;;;;;;;5.20;64.43;95723.28;5029514;28;20218;-65
2022/12/27 08:30:35;;;;;;;33.20;26.80;;;;;;;5.14;65.45;95733.28;5010656;28;20226;-66
2022/12/27 08:33:01;;;;;;;34.47;28.33;;;;;;;5.18;65.15;95722.53;5009737;28;20215;-67
2022/12/27 08:35:27;;;;;;;32.70;26.30;;;;;;;5.27;65.03;95711.50;5017594;28;20181;-65
2022/12/27 08:37:52;;;;;;;30.47;24.80;;;;;;;5.40;64.79;95721.97;5011997;28;20179;-66
2022/12/27 08:40:18;;;;;;;33.97;26.43;;;;;;;5.55;64.21;95721.84;5011907;28;20239;-66
2022/12/27 08:42:44;;;;;;;33.73;27.23;;;;;;;5.44;64.13;95704.31;5011935;28;20230;-66
2022/12/27 08:45:10;;;;;;;32.70;26.87;;;;;;;5.50;64.49;95696.06;5008884;28;20234;-66
2022/12/27 08:47:36;;;;;;;28.37;22.40;;;;;;;5.39;65.17;95701.19;5016002;28;20179;-66
2022/12/27 08:50:01;;;;;;;26.90;21.83;;;;;;;5.63;64.76;95693.47;5017153;28;20243;-66
2022/12/27 08:52:27;;;;;;;28.23;20.67;;;;;;;5.84;64.66;95699.81;5009632;28;20310;-65
2022/12/27 08:54:52;;;;;;;24.10;19.53;;;;;;;6.01;64.62;95693.44;5010640;28;20231;-66
2022/12/27 08:57:18;;;;;;;22.20;17.37;;;;;;;6.05;64.19;95704.53;5012415;28;20216;-66
2022/12/27 08:59:43;;;;;;;22.27;17.93;;;;;;;6.11;64.31;95696.25;5012194;28;20219;-66
2022/12/27 09:02:10;;;;;;;27.13;17.70;;;;;;;6.18;63.66;95689.69;5016980;28;20186;-67
2022/12/27 09:04:36;;;;;;;21.83;17.50;;;;;;;6.26;63.71;95681.31;5032206;28;20246;-67
2022/12/27 09:07:28;;;;;;;22.40;16.77;;;;;;;5.98;64.54;95693.66;5019308;28;20215;-67
2022/12/27 09:09:53;;;;;;;22.43;19.10;;;;;;;5.99;64.57;95684.06;5000434;28;20219;-66
2022/12/27 09:12:19;;;;;;;23.93;17.13;;;;;;;6.22;63.80;95675.44;5012578;28;20238;-67
2022/12/27 09:14:44;;;;;;;21.17;17.87;;;;;;;6.46;63.50;95674.63;5009347;28;21004;-67
2022/12/27 09:17:10;;;;;;;25.97;18.10;;;;;;;6.55;63.15;95679.22;5032477;28;20199;-67
2022/12/27 09:19:35;;;;;;;23.53;19.30;;;;;;;6.61;62.89;95669.13;5007083;28;20218;-66
2022/12/27 09:22:00;;;;;;;25.33;17.83;;;;;;;6.74;62.61;95665.66;5004539;28;20223;-67
2022/12/27 09:24:26;;;;;;;25.67;19.47;;;;;;;6.89;62.33;95661.06;5004714;28;20239;-67
2022/12/27 09:26:51;;;;;;;26.67;20.90;;;;;;;6.89;62.18;95650.59;5002166;28;20310;-67
2022/12/27 09:29:17;;;;;;;30.07;21.80;;;;;;;7.03;61.74;95647.78;4996400;28;20322;-67
2022/12/27 09:31:42;;;;;;;24.50;21.07;;;;;;;7.10;61.47;95643.75;4994747;28;20222;-67
2022/12/27 09:34:11;;;;;;;24.33;20.37;;;;;;;7.23;61.46;95643.69;5013363;28;20211;-66
2022/12/27 09:36:38;;;;;;;27.07;22.50;;;;;;;7.29;61.23;95648.44;5018132;28;20223;-66
2022/12/27 09:39:04;;;;;;;26.03;20.60;;;;;;;7.46;60.87;95640.16;5026770;28;20224;-66
2022/12/27 09:41:48;;;;;;;24.63;18.37;;;;;;;7.53;60.70;95640.50;5011196;28;20238;-66
2022/12/27 09:44:34;;;;;;;25.37;18.93;;;;;;;7.70;60.00;95650.53;5013904;28;20677;-66
2022/12/27 09:47:05;;;;;;;23.57;18.37;;;;;;;7.72;59.69;95645.16;5006171;28;20215;-66
2022/12/27 09:49:57;;;;;;;24.00;17.07;;;;;;;7.83;59.75;95636.47;5015349;28;20218;-66
2022/12/27 09:52:31;;;;;;;24.00;15.90;;;;;;;7.94;59.64;95628.63;5013435;28;20225;-66
2022/12/27 09:55:02;;;;;;;18.13;15.13;;;;;;;8.09;59.11;95643.09;5011282;28;20259;-67
2022/12/27 09:57:37;;;;;;;21.33;14.83;;;;;;;8.18;58.59;95621.44;5011410;28;20223;-67
2022/12/27 10:00:13;;;;;;;18.93;14.23;;;;;;;8.23;58.58;95639.38;5010106;28;20306;-67
2022/12/27 10:02:39;;;;;;;15.47;13.43;;;;;;;8.37;57.50;95647.00;5018526;28;20248;-67
2022/12/27 10:05:16;;;;;;;15.07;13.17;;;;;;;8.25;58.25;95632.25;5009783;28;20183;-67
2022/12/27 10:07:52;;;;;;;14.73;12.60;;;;;;;8.39;57.99;95621.53;5018031;28;20224;-66
2022/12/27 10:10:56;;;;;;;18.57;14.27;;;;;;;8.54;57.55;95621.25;5015885;28;20234;-66
2022/12/27 10:13:41;;;;;;;17.77;13.50;;;;;;;8.73;56.92;95613.53;5003687;28;20233;-66
2022/12/27 10:16:36;;;;;;;16.83;15.03;;;;;;;8.86;56.35;95591.56;5011545;28;20220;-67
2022/12/27 10:19:24;;;;;;;18.77;14.97;;;;;;;8.88;56.17;95594.91;5020984;28;20382;-67
2022/12/27 10:22:14;;;;;;;17.63;15.27;;;;;;;8.96;56.45;95584.59;5004108;28;20250;-67
2022/12/27 10:24:47;;;;;;;17.60;14.43;;;;;;;9.20;56.04;95587.78;5002339;28;20254;-67
2022/12/27 10:27:15;;;;;;;16.23;14.50;;;;;;;9.08;56.09;95590.59;4999521;28;20223;-67
2022/12/27 10:29:41;;;;;;;17.93;15.07;;;;;;;9.19;55.83;95586.09;5021041;28;20249;-67
2022/12/27 10:32:11;;;;;;;19.17;14.83;;;;;;;9.35;55.26;95601.38;5002891;28;20184;-67
2022/12/27 10:34:37;;;;;;;20.37;14.70;;;;;;;9.36;55.53;95602.25;5027861;28;20215;-67
2022/12/27 10:37:02;;;;;;;19.90;15.27;;;;;;;9.49;55.45;95597.63;5021645;28;20289;-67
2022/12/27 10:39:31;;;;;;;17.53;14.43;;;;;;;9.67;54.92;95590.75;4992308;28;20224;-67
2022/12/27 10:42:20;;;;;;;19.83;15.47;;;;;;;9.91;53.58;95592.25;4995201;28;20231;-67
2022/12/27 10:44:46;;;;;;;21.57;15.63;;;;;;;10.19;52.52;95595.91;4989254;28;20231;-67
2022/12/27 10:47:12;;;;;;;18.73;14.73;;;;;;;9.98;53.23;95590.75;5000076;28;20184;-67
2022/12/27 10:49:38;;;;;;;17.00;14.93;;;;;;;9.97;53.22;95589.09;4993299;28;20220;-67
2022/12/27 10:52:15;;;;;;;20.87;15.33;;;;;;;10.32;52.65;95586.03;5000095;28;20270;-67
2022/12/27 10:54:55;;;;;;;21.80;17.10;;;;;;;10.00;53.25;95595.88;5011513;28;20272;-68
2022/12/27 10:57:35;;;;;;;21.67;17.67;;;;;;;10.24;52.75;95588.47;4990066;28;20275;-67
2022/12/27 11:00:16;;;;;;;23.47;19.10;;;;;;;10.42;52.57;95582.56;5000625;28;20234;-68
2022/12/27 11:02:53;;;;;;;25.63;19.83;;;;;;;10.51;51.72;95579.94;5001672;28;20224;-67
2022/12/27 11:05:30;;;;;;;26.33;22.13;;;;;;;10.45;51.66;95580.50;5008299;28;20176;-66
2022/12/27 11:07:56;;;;;;;26.27;21.80;;;;;;;10.53;51.71;95564.00;5013130;28;20244;-67
2022/12/27 11:10:28;;;;;;;27.57;21.43;;;;;;;10.58;51.71;95567.06;5012085;28;20219;-67
2022/12/27 11:13:02;;;;;;;23.13;20.00;;;;;;;10.62;51.51;95568.47;5015834;28;20238;-66
2022/12/27 11:15:30;;;;;;;24.40;20.07;;;;;;;10.68;51.23;95569.69;5018646;28;20219;-67
2022/12/27 11:18:11;;;;;;;23.20;19.33;;;;;;;10.70;51.22;95570.41;5014489;28;20657;-67
2022/12/27 11:20:49;;;;;;;24.57;20.00;;;;;;;10.88;50.79;95571.38;5025809;28;20230;-67
2022/12/27 11:23:17;;;;;;;29.77;22.17;;;;;;;11.26;49.81;95564.38;5002392;28;20217;-67
2022/12/27 11:25:53;;;;;;;25.57;21.73;;;;;;;11.19;50.39;95565.91;5012056;28;20223;-67
2022/12/27 11:28:29;;;;;;;29.93;23.47;;;;;;;11.47;50.36;95565.00;5009549;28;20241;-67
2022/12/27 11:30:58;;;;;;;31.47;26.87;;;;;;;11.57;49.97;95566.75;5007826;28;20175;-67
2022/12/27 11:33:38;;;;;;;34.63;28.73;;;;;;;11.66;49.95;95566.72;5020483;28;20171;-67
2022/12/27 11:36:06;;;;;;;31.07;27.10;;;;;;;11.83;49.53;95561.66;5010624;28;20243;-67
2022/12/27 11:38:34;;;;;;;31.97;27.53;;;;;;;11.86;49.66;95562.22;4989002;28;20219;-67
2022/12/27 11:41:26;;;;;;;35.80;27.80;;;;;;;11.81;48.66;95569.69;5001517;28;20235;-67
2022/12/27 11:43:57;;;;;;;30.80;27.53;;;;;;;12.00;48.40;95578.53;5015304;28;20218;-67
2022/12/27 11:47:02;;;;;;;31.67;27.77;;;;;;;12.07;48.17;95563.78;4999336;28;20219;-68
2022/12/27 11:49:35;;;;;;;31.13;26.83;;;;;;;12.39;48.31;95565.94;5001697;28;20219;-67
2022/12/27 11:52:12;;;;;;;32.87;26.90;;;;;;;12.61;47.61;95572.59;5018869;28;20256;-68
2022/12/27 11:55:22;;;;;;;29.97;26.53;;;;;;;12.84;47.23;95570.31;5008083;28;20183;-68
2022/12/27 11:57:51;;;;;;;30.83;25.67;;;;;;;12.98;46.30;95572.41;5011592;28;20214;-68
2022/12/27 12:00:22;;;;;;;29.30;25.58;;;;;;;12.92;46.29;95575.69;5015500;28;20215;-68
2022/12/27 12:03:05;;;;;;;28.48;25.40;;;;;;;12.81;46.67;95568.00;5013378;28;20284;-68
2022/12/27 12:05:51;;;;;;;32.10;24.77;;;;;;;12.92;46.36;95559.84;5000368;28;20224;-67
2022/12/27 12:08:34;;;;;;;33.20;26.27;;;;;;;12.85;46.51;95557.97;5008096;28;20227;-67
2022/12/27 12:11:31;;;;;;;27.08;24.17;;;;;;;12.68;47.09;95573.66;4997468;28;20218;-67
2022/12/27 12:14:22;;;;;;;28.23;23.13;;;;;;;12.35;47.58;95569.88;5000301;28;20244;-68
2022/12/27 12:17:09;;;;;;;28.27;24.63;;;;;;;11.88;49.03;95576.09;5006467;28;20306;-67
2022/12/27 12:20:17;;;;;;;27.77;22.23;;;;;;;11.72;49.17;95564.50;5012908;28;20219;-66
2022/12/27 12:23:09;;;;;;;28.40;23.13;;;;;;;11.63;49.74;95564.38;4961627;28;20220;-66
2022/12/27 12:25:53;;;;;;;26.97;22.17;;;;;;;11.17;51.19;95566.06;4946370;28;20263;-66
2022/12/27 12:28:56;;;;;;;27.63;22.23;;;;;;;11.16;51.12;95568.81;4955224;28;20312;-66
2022/12/27 12:32:08;;;;;;;29.13;22.87;;;;;;;11.14;51.60;95570.75;4943612;29;20220;-66
2022/12/27 12:34:59;;;;;;;30.43;24.87;;;;;;;11.10;51.28;95569.41;4946406;28;20228;-67
2022/12/27 12:37:58;;;;;;;28.73;24.23;;;;;;;11.02;51.73;95578.81;4957799;28;20338;-66
2022/12/27 12:41:10;;;;;;;29.50;22.87;;;;;;;10.86;52.15;95583.81;4979246;28;20231;-67
2022/12/27 12:43:55;;;;;;;29.93;23.10;;;;;;;11.02;51.86;95576.19;4932839;29;20237;-67
2022/12/27 12:46:35;;;;;;;27.27;22.93;;;;;;;11.14;51.80;95586.56;4951700;29;20221;-67
2022/12/27 12:49:25;;;;;;;27.53;21.77;;;;;;;11.19;51.63;95582.53;4948989;29;20197;-67
2022/12/27 12:52:12;;;;;;;27.23;21.90;;;;;;;11.18;51.84;95583.50;4950560;29;20248;-67
2022/12/27 12:54:59;;;;;;;29.27;23.13;;;;;;;11.30;51.44;95591.22;4950028;29;20205;-67
2022/12/27 12:57:39;;;;;;;27.40;22.70;;;;;;;11.29;51.54;95579.88;4968814;28;20220;-67
2022/12/27 13:00:14;;;;;;;29.40;23.27;;;;;;;11.37;51.48;95584.44;4962980;28;20730;-67
2022/12/27 13:03:00;;;;;;;28.57;23.87;;;;;;;11.48;51.25;95589.53;4946484;28;20337;-67
2022/12/27 13:05:43;;;;;;;31.87;23.47;;;;;;;11.61;50.69;95590.03;4976376;28;20315;-67
2022/12/27 13:08:21;;;;;;;32.83;24.73;;;;;;;11.88;50.44;95601.63;4995676;28;20215;-67
2022/12/27 13:11:23;;;;;;;30.47;23.27;;;;;;;11.88;50.17;95607.72;4982143;28;20229;-67
2022/12/27 13:14:20;;;;;;;22.40;19.27;;;;;;;12.05;50.66;95606.09;4990814;28;20222;-67
2022/12/27 13:17:01;;;;;;;27.23;20.77;;;;;;;12.11;50.50;95609.97;4975090;28;20219;-68
2022/12/27 13:19:54;;;;;;;22.87;19.40;;;;;;;12.22;50.80;95609.78;4978335;28;20242;-67
2022/12/27 13:22:38;;;;;;;22.87;17.93;;;;;;;12.31;50.90;95613.34;4992612;28;20531;-67
2022/12/27 13:25:36;;;;;;;20.23;15.00;;;;;;;12.23;51.81;95619.34;5015129;28;20225;-67